sensor_id;sensor_type;location;lat;lon;timestamp;temperature;humidity
569;DHT22;269;48.884;9.192;2023-06-14T00:01:14;17.80;59.70
569;DHT22;269;48.884;9.192;2023-06-14T00:03:41;17.70;59.90
569;DHT22;269;48.884;9.192;2023-06-14T00:06:09;17.80;60.00
569;DHT22;269;48.884;9.192;2023-06-14T00:08:37;17.70;60.40
569;DHT22;269;48.884;9.192;2023-06-14T00:11:04;17.70;60.80
569;DHT22;269;48.884;9.192;2023-06-14T00:13:31;17.60;60.90
569;DHT22;269;48.884;9.192;2023-06-14T00:15:58;17.60;60.80
569;DHT22;269;48.884;9.192;2023-06-14T00:18:25;17.50;60.60
569;DHT22;269;48.884;9.192;2023-06-14T00:20:55;17.50;61.20
569;DHT22;269;48.884;9.192;2023-06-14T00:23:24;17.50;61.10
569;DHT22;269;48.884;9.192;2023-06-14T00:25:51;17.50;61.40
569;DHT22;269;48.884;9.192;2023-06-14T00:28:18;17.40;61.70
569;DHT22;269;48.884;9.192;2023-06-14T00:30:46;17.40;61.80
569;DHT22;269;48.884;9.192;2023-06-14T00:33:13;17.30;61.90
569;DHT22;269;48.884;9.192;2023-06-14T00:35:40;17.30;62.10
569;DHT22;269;48.884;9.192;2023-06-14T00:38:07;17.30;62.10
569;DHT22;269;48.884;9.192;2023-06-14T00:40:35;17.30;62.10
569;DHT22;269;48.884;9.192;2023-06-14T00:43:02;17.20;62.20
569;DHT22;269;48.884;9.192;2023-06-14T00:45:29;17.20;62.20
569;DHT22;269;48.884;9.192;2023-06-14T00:48:01;17.20;62.50
569;DHT22;269;48.884;9.192;2023-06-14T00:50:30;17.10;62.70
569;DHT22;269;48.884;9.192;2023-06-14T00:52:58;17.10;62.90
569;DHT22;269;48.884;9.192;2023-06-14T00:55:26;17.10;63.70
569;DHT22;269;48.884;9.192;2023-06-14T00:57:55;17.00;64.00
569;DHT22;269;48.884;9.192;2023-06-14T01:00:22;17.00;64.40
569;DHT22;269;48.884;9.192;2023-06-14T01:02:49;17.00;64.70
569;DHT22;269;48.884;9.192;2023-06-14T01:05:16;17.00;64.90
569;DHT22;269;48.884;9.192;2023-06-14T01:08:05;16.90;64.90
569;DHT22;269;48.884;9.192;2023-06-14T01:10:41;16.90;64.90
569;DHT22;269;48.884;9.192;2023-06-14T01:13:15;16.90;64.90
569;DHT22;269;48.884;9.192;2023-06-14T01:15:46;16.80;64.50
569;DHT22;269;48.884;9.192;2023-06-14T01:18:13;16.80;64.40
569;DHT22;269;48.884;9.192;2023-06-14T01:20:44;16.80;64.00
569;DHT22;269;48.884;9.192;2023-06-14T01:23:14;16.70;64.10
569;DHT22;269;48.884;9.192;2023-06-14T01:25:42;16.70;64.50
569;DHT22;269;48.884;9.192;2023-06-14T01:28:11;16.70;64.60
569;DHT22;269;48.884;9.192;2023-06-14T01:30:40;16.70;64.80
569;DHT22;269;48.884;9.192;2023-06-14T01:33:12;16.60;64.70
569;DHT22;269;48.884;9.192;2023-06-14T01:35:40;16.60;65.00
569;DHT22;269;48.884;9.192;2023-06-14T01:38:07;16.60;65.30
569;DHT22;269;48.884;9.192;2023-06-14T01:40:36;16.60;64.90
569;DHT22;269;48.884;9.192;2023-06-14T01:43:04;16.60;65.20
569;DHT22;269;48.884;9.192;2023-06-14T01:45:33;16.50;64.90
569;DHT22;269;48.884;9.192;2023-06-14T01:48:00;16.50;66.10
569;DHT22;269;48.884;9.192;2023-06-14T01:50:28;16.50;66.10
569;DHT22;269;48.884;9.192;2023-06-14T01:52:56;16.50;66.40
569;DHT22;269;48.884;9.192;2023-06-14T01:55:23;16.40;66.60
569;DHT22;269;48.884;9.192;2023-06-14T01:57:55;16.40;67.10
569;DHT22;269;48.884;9.192;2023-06-14T02:00:22;16.40;67.30
569;DHT22;269;48.884;9.192;2023-06-14T02:02:49;16.40;67.50
569;DHT22;269;48.884;9.192;2023-06-14T02:05:16;16.30;67.40
569;DHT22;269;48.884;9.192;2023-06-14T02:07:44;16.40;67.60
569;DHT22;269;48.884;9.192;2023-06-14T02:10:12;16.30;67.80
569;DHT22;269;48.884;9.192;2023-06-14T02:12:40;16.30;68.10
569;DHT22;269;48.884;9.192;2023-06-14T02:15:09;16.20;68.90
569;DHT22;269;48.884;9.192;2023-06-14T02:17:42;16.20;68.50
569;DHT22;269;48.884;9.192;2023-06-14T02:20:10;16.30;68.70
569;DHT22;269;48.884;9.192;2023-06-14T02:22:38;16.20;69.00
569;DHT22;269;48.884;9.192;2023-06-14T02:25:05;16.20;69.60
569;DHT22;269;48.884;9.192;2023-06-14T02:27:33;16.20;69.70
569;DHT22;269;48.884;9.192;2023-06-14T02:30:00;16.20;70.00
569;DHT22;269;48.884;9.192;2023-06-14T02:32:29;16.10;70.00
569;DHT22;269;48.884;9.192;2023-06-14T02:34:57;16.10;69.90
569;DHT22;269;48.884;9.192;2023-06-14T02:37:24;16.10;70.50
569;DHT22;269;48.884;9.192;2023-06-14T02:39:51;16.00;70.70
569;DHT22;269;48.884;9.192;2023-06-14T02:42:18;16.00;71.00
569;DHT22;269;48.884;9.192;2023-06-14T02:44:45;16.00;71.40
569;DHT22;269;48.884;9.192;2023-06-14T02:47:17;16.00;72.10
569;DHT22;269;48.884;9.192;2023-06-14T02:49:45;16.00;72.20
569;DHT22;269;48.884;9.192;2023-06-14T02:52:13;15.90;72.30
569;DHT22;269;48.884;9.192;2023-06-14T02:54:40;15.90;72.40
569;DHT22;269;48.884;9.192;2023-06-14T02:57:07;16.00;72.80
569;DHT22;269;48.884;9.192;2023-06-14T02:59:34;15.90;72.90
569;DHT22;269;48.884;9.192;2023-06-14T03:02:01;15.90;73.20
569;DHT22;269;48.884;9.192;2023-06-14T03:04:28;15.90;73.40
569;DHT22;269;48.884;9.192;2023-06-14T03:07:01;15.80;73.70
569;DHT22;269;48.884;9.192;2023-06-14T03:09:35;15.80;73.80
569;DHT22;269;48.884;9.192;2023-06-14T03:12:03;15.80;74.10
569;DHT22;269;48.884;9.192;2023-06-14T03:14:31;15.80;74.40
569;DHT22;269;48.884;9.192;2023-06-14T03:16:58;15.80;74.50
569;DHT22;269;48.884;9.192;2023-06-14T03:19:26;15.80;74.80
569;DHT22;269;48.884;9.192;2023-06-14T03:21:53;15.80;75.00
569;DHT22;269;48.884;9.192;2023-06-14T03:24:24;15.70;75.30
569;DHT22;269;48.884;9.192;2023-06-14T03:26:53;15.70;75.40
569;DHT22;269;48.884;9.192;2023-06-14T03:29:20;15.70;76.00
569;DHT22;269;48.884;9.192;2023-06-14T03:31:59;15.70;76.30
569;DHT22;269;48.884;9.192;2023-06-14T03:34:26;15.60;76.60
569;DHT22;269;48.884;9.192;2023-06-14T03:36:53;15.60;76.90
569;DHT22;269;48.884;9.192;2023-06-14T03:39:20;15.60;77.20
569;DHT22;269;48.884;9.192;2023-06-14T03:41:48;15.60;77.20
569;DHT22;269;48.884;9.192;2023-06-14T03:44:17;15.60;77.60
569;DHT22;269;48.884;9.192;2023-06-14T03:46:44;15.50;78.10
569;DHT22;269;48.884;9.192;2023-06-14T03:49:12;15.50;78.70
569;DHT22;269;48.884;9.192;2023-06-14T03:51:39;15.50;79.40
569;DHT22;269;48.884;9.192;2023-06-14T03:54:06;15.50;79.90
569;DHT22;269;48.884;9.192;2023-06-14T03:56:33;15.50;80.30
569;DHT22;269;48.884;9.192;2023-06-14T03:59:03;15.50;80.60
569;DHT22;269;48.884;9.192;2023-06-14T04:01:30;15.60;81.20
569;DHT22;269;48.884;9.192;2023-06-14T04:03:59;15.60;81.50
569;DHT22;269;48.884;9.192;2023-06-14T04:06:26;15.50;82.20
569;DHT22;269;48.884;9.192;2023-06-14T04:08:59;15.50;81.80
569;DHT22;269;48.884;9.192;2023-06-14T04:11:29;15.40;81.50
569;DHT22;269;48.884;9.192;2023-06-14T04:13:56;15.30;81.50
569;DHT22;269;48.884;9.192;2023-06-14T04:16:24;15.30;82.80
569;DHT22;269;48.884;9.192;2023-06-14T04:18:51;15.30;83.30
569;DHT22;269;48.884;9.192;2023-06-14T04:21:19;15.30;83.60
569;DHT22;269;48.884;9.192;2023-06-14T04:23:45;15.30;84.60
569;DHT22;269;48.884;9.192;2023-06-14T04:26:13;15.40;85.80
569;DHT22;269;48.884;9.192;2023-06-14T04:28:40;15.40;85.80
569;DHT22;269;48.884;9.192;2023-06-14T04:31:07;15.50;86.70
569;DHT22;269;48.884;9.192;2023-06-14T04:33:36;15.60;87.40
569;DHT22;269;48.884;9.192;2023-06-14T04:36:09;15.60;87.20
569;DHT22;269;48.884;9.192;2023-06-14T04:38:37;15.70;87.60
569;DHT22;269;48.884;9.192;2023-06-14T04:41:04;15.80;87.20
569;DHT22;269;48.884;9.192;2023-06-14T04:43:31;15.80;86.80
569;DHT22;269;48.884;9.192;2023-06-14T04:46:04;15.90;86.50
569;DHT22;269;48.884;9.192;2023-06-14T04:48:39;16.00;86.40
569;DHT22;269;48.884;9.192;2023-06-14T04:51:08;16.00;86.20
569;DHT22;269;48.884;9.192;2023-06-14T04:53:36;16.20;86.40
569;DHT22;269;48.884;9.192;2023-06-14T04:56:03;16.30;86.00
569;DHT22;269;48.884;9.192;2023-06-14T04:58:31;16.40;85.60
569;DHT22;269;48.884;9.192;2023-06-14T05:00:58;16.60;85.00
569;DHT22;269;48.884;9.192;2023-06-14T05:03:25;16.60;84.60
569;DHT22;269;48.884;9.192;2023-06-14T05:05:54;16.70;84.20
569;DHT22;269;48.884;9.192;2023-06-14T05:08:21;16.80;84.00
569;DHT22;269;48.884;9.192;2023-06-14T05:10:50;16.90;83.50
569;DHT22;269;48.884;9.192;2023-06-14T05:13:17;17.00;83.20
569;DHT22;269;48.884;9.192;2023-06-14T05:15:44;17.10;82.70
569;DHT22;269;48.884;9.192;2023-06-14T05:18:11;17.20;82.20
569;DHT22;269;48.884;9.192;2023-06-14T05:20:39;17.40;81.90
569;DHT22;269;48.884;9.192;2023-06-14T05:23:08;17.50;81.70
569;DHT22;269;48.884;9.192;2023-06-14T05:25:42;17.60;81.20
569;DHT22;269;48.884;9.192;2023-06-14T05:28:09;17.80;81.40
569;DHT22;269;48.884;9.192;2023-06-14T05:30:37;17.90;80.70
569;DHT22;269;48.884;9.192;2023-06-14T05:33:05;18.00;80.80
569;DHT22;269;48.884;9.192;2023-06-14T05:35:32;18.10;80.70
569;DHT22;269;48.884;9.192;2023-06-14T05:37:59;18.10;80.40
569;DHT22;269;48.884;9.192;2023-06-14T05:40:28;18.20;80.30
569;DHT22;269;48.884;9.192;2023-06-14T05:42:55;18.20;79.50
569;DHT22;269;48.884;9.192;2023-06-14T05:45:22;18.30;78.80
569;DHT22;269;48.884;9.192;2023-06-14T05:47:49;18.40;78.30
569;DHT22;269;48.884;9.192;2023-06-14T05:50:17;18.40;78.20
569;DHT22;269;48.884;9.192;2023-06-14T05:52:44;18.50;78.00
569;DHT22;269;48.884;9.192;2023-06-14T05:55:11;18.50;77.90
569;DHT22;269;48.884;9.192;2023-06-14T05:57:40;18.50;77.80
569;DHT22;269;48.884;9.192;2023-06-14T06:00:08;18.60;77.50
569;DHT22;269;48.884;9.192;2023-06-14T06:02:40;18.70;77.50
569;DHT22;269;48.884;9.192;2023-06-14T06:05:08;18.70;77.40
569;DHT22;269;48.884;9.192;2023-06-14T06:07:35;18.80;77.30
569;DHT22;269;48.884;9.192;2023-06-14T06:10:04;18.90;77.30
569;DHT22;269;48.884;9.192;2023-06-14T06:12:31;19.00;77.70
569;DHT22;269;48.884;9.192;2023-06-14T06:15:00;19.00;76.90
569;DHT22;269;48.884;9.192;2023-06-14T06:17:27;19.10;76.90
569;DHT22;269;48.884;9.192;2023-06-14T06:19:54;19.20;76.30
569;DHT22;269;48.884;9.192;2023-06-14T06:22:21;19.30;76.10
569;DHT22;269;48.884;9.192;2023-06-14T06:24:49;19.30;75.50
569;DHT22;269;48.884;9.192;2023-06-14T06:27:16;19.40;75.40
569;DHT22;269;48.884;9.192;2023-06-14T06:29:44;19.40;75.10
569;DHT22;269;48.884;9.192;2023-06-14T06:32:13;19.50;74.60
569;DHT22;269;48.884;9.192;2023-06-14T06:34:40;19.50;74.30
569;DHT22;269;48.884;9.192;2023-06-14T06:37:07;19.60;73.80
569;DHT22;269;48.884;9.192;2023-06-14T06:39:34;19.60;73.60
569;DHT22;269;48.884;9.192;2023-06-14T06:42:01;19.70;73.70
569;DHT22;269;48.884;9.192;2023-06-14T06:44:28;19.80;73.70
569;DHT22;269;48.884;9.192;2023-06-14T06:46:56;19.90;73.50
569;DHT22;269;48.884;9.192;2023-06-14T06:49:25;20.00;73.30
569;DHT22;269;48.884;9.192;2023-06-14T06:52:02;20.10;73.20
569;DHT22;269;48.884;9.192;2023-06-14T06:54:30;20.10;73.50
569;DHT22;269;48.884;9.192;2023-06-14T06:56:57;20.20;73.30
569;DHT22;269;48.884;9.192;2023-06-14T06:59:24;20.30;73.10
569;DHT22;269;48.884;9.192;2023-06-14T07:01:51;20.40;73.00
569;DHT22;269;48.884;9.192;2023-06-14T07:04:18;20.40;73.20
569;DHT22;269;48.884;9.192;2023-06-14T07:06:47;20.50;73.10
569;DHT22;269;48.884;9.192;2023-06-14T07:09:14;20.60;72.50
569;DHT22;269;48.884;9.192;2023-06-14T07:11:43;20.70;72.80
569;DHT22;269;48.884;9.192;2023-06-14T07:14:11;20.80;72.70
569;DHT22;269;48.884;9.192;2023-06-14T07:16:38;20.80;72.60
569;DHT22;269;48.884;9.192;2023-06-14T07:19:06;20.90;72.80
569;DHT22;269;48.884;9.192;2023-06-14T07:21:34;21.00;72.20
569;DHT22;269;48.884;9.192;2023-06-14T07:24:05;21.00;72.50
569;DHT22;269;48.884;9.192;2023-06-14T07:26:33;21.10;72.20
569;DHT22;269;48.884;9.192;2023-06-14T07:29:01;21.20;71.80
569;DHT22;269;48.884;9.192;2023-06-14T07:31:28;21.20;71.30
569;DHT22;269;48.884;9.192;2023-06-14T07:33:56;21.40;71.10
569;DHT22;269;48.884;9.192;2023-06-14T07:36:23;21.60;71.40
569;DHT22;269;48.884;9.192;2023-06-14T07:38:50;21.80;70.70
569;DHT22;269;48.884;9.192;2023-06-14T07:41:19;22.00;70.60
569;DHT22;269;48.884;9.192;2023-06-14T07:43:46;22.20;70.00
569;DHT22;269;48.884;9.192;2023-06-14T07:46:14;22.50;69.80
569;DHT22;269;48.884;9.192;2023-06-14T07:48:41;22.80;69.10
569;DHT22;269;48.884;9.192;2023-06-14T07:51:08;23.10;68.70
569;DHT22;269;48.884;9.192;2023-06-14T07:53:36;23.30;67.20
569;DHT22;269;48.884;9.192;2023-06-14T07:56:03;23.50;67.80
569;DHT22;269;48.884;9.192;2023-06-14T07:58:32;23.80;65.80
569;DHT22;269;48.884;9.192;2023-06-14T08:00:59;23.80;66.00
569;DHT22;269;48.884;9.192;2023-06-14T08:03:29;24.00;66.60
569;DHT22;269;48.884;9.192;2023-06-14T08:05:56;24.30;65.50
569;DHT22;269;48.884;9.192;2023-06-14T08:08:24;24.60;65.50
569;DHT22;269;48.884;9.192;2023-06-14T08:10:51;25.00;65.30
569;DHT22;269;48.884;9.192;2023-06-14T08:13:18;25.40;64.00
569;DHT22;269;48.884;9.192;2023-06-14T08:15:46;25.80;63.50
569;DHT22;269;48.884;9.192;2023-06-14T08:18:13;26.10;62.90
569;DHT22;269;48.884;9.192;2023-06-14T08:20:40;26.40;62.70
569;DHT22;269;48.884;9.192;2023-06-14T08:23:08;26.50;61.50
569;DHT22;269;48.884;9.192;2023-06-14T08:25:36;26.60;61.90
569;DHT22;269;48.884;9.192;2023-06-14T08:28:04;26.60;61.40
569;DHT22;269;48.884;9.192;2023-06-14T08:30:32;26.60;61.20
569;DHT22;269;48.884;9.192;2023-06-14T08:33:00;26.80;61.10
569;DHT22;269;48.884;9.192;2023-06-14T08:35:28;27.10;59.90
569;DHT22;269;48.884;9.192;2023-06-14T08:37:55;27.30;59.70
569;DHT22;269;48.884;9.192;2023-06-14T08:40:23;27.50;59.40
569;DHT22;269;48.884;9.192;2023-06-14T08:42:52;27.70;59.10
569;DHT22;269;48.884;9.192;2023-06-14T08:45:19;27.80;59.50
569;DHT22;269;48.884;9.192;2023-06-14T08:47:47;27.90;59.00
569;DHT22;269;48.884;9.192;2023-06-14T08:50:21;28.00;58.60
569;DHT22;269;48.884;9.192;2023-06-14T08:52:53;28.00;58.70
569;DHT22;269;48.884;9.192;2023-06-14T08:55:23;28.20;57.90
569;DHT22;269;48.884;9.192;2023-06-14T08:57:54;28.40;57.30
569;DHT22;269;48.884;9.192;2023-06-14T09:00:23;28.50;56.90
569;DHT22;269;48.884;9.192;2023-06-14T09:02:50;28.70;57.40
569;DHT22;269;48.884;9.192;2023-06-14T09:05:24;28.70;56.90
569;DHT22;269;48.884;9.192;2023-06-14T09:07:52;28.70;57.00
569;DHT22;269;48.884;9.192;2023-06-14T09:10:21;28.80;56.30
569;DHT22;269;48.884;9.192;2023-06-14T09:12:48;29.00;56.40
569;DHT22;269;48.884;9.192;2023-06-14T09:15:16;29.30;55.90
569;DHT22;269;48.884;9.192;2023-06-14T09:17:43;29.80;55.60
569;DHT22;269;48.884;9.192;2023-06-14T09:20:10;29.70;55.30
569;DHT22;269;48.884;9.192;2023-06-14T09:22:40;29.70;55.40
569;DHT22;269;48.884;9.192;2023-06-14T09:25:09;29.70;54.90
569;DHT22;269;48.884;9.192;2023-06-14T09:27:38;29.90;54.80
569;DHT22;269;48.884;9.192;2023-06-14T09:30:09;29.80;54.70
569;DHT22;269;48.884;9.192;2023-06-14T09:32:37;29.90;54.80
569;DHT22;269;48.884;9.192;2023-06-14T09:35:06;30.10;54.60
569;DHT22;269;48.884;9.192;2023-06-14T09:37:35;30.20;54.10
569;DHT22;269;48.884;9.192;2023-06-14T09:40:07;30.10;53.70
569;DHT22;269;48.884;9.192;2023-06-14T11:38:26;29.80;44.20
569;DHT22;269;48.884;9.192;2023-06-14T11:40:59;29.70;45.10
569;DHT22;269;48.884;9.192;2023-06-14T11:43:27;29.90;44.80
569;DHT22;269;48.884;9.192;2023-06-14T11:45:55;30.30;44.70
569;DHT22;269;48.884;9.192;2023-06-14T11:48:23;30.80;45.00
569;DHT22;269;48.884;9.192;2023-06-14T11:50:50;31.40;44.40
569;DHT22;269;48.884;9.192;2023-06-14T11:53:18;32.00;43.40
569;DHT22;269;48.884;9.192;2023-06-14T11:55:47;32.50;42.90
569;DHT22;269;48.884;9.192;2023-06-14T11:58:14;32.50;42.10
569;DHT22;269;48.884;9.192;2023-06-14T12:00:42;32.10;42.80
569;DHT22;269;48.884;9.192;2023-06-14T12:03:11;31.70;43.00
569;DHT22;269;48.884;9.192;2023-06-14T12:05:38;31.20;42.40
569;DHT22;269;48.884;9.192;2023-06-14T12:08:06;31.30;43.30
569;DHT22;269;48.884;9.192;2023-06-14T12:10:40;31.50;43.60
569;DHT22;269;48.884;9.192;2023-06-14T12:13:11;31.80;43.20
569;DHT22;269;48.884;9.192;2023-06-14T12:15:38;31.70;42.30
569;DHT22;269;48.884;9.192;2023-06-14T12:18:06;31.40;42.90
569;DHT22;269;48.884;9.192;2023-06-14T12:20:35;31.60;43.20
569;DHT22;269;48.884;9.192;2023-06-14T12:23:04;31.70;43.50
569;DHT22;269;48.884;9.192;2023-06-14T12:25:33;31.70;43.70
569;DHT22;269;48.884;9.192;2023-06-14T12:28:04;31.60;43.10
569;DHT22;269;48.884;9.192;2023-06-14T12:30:34;31.40;43.60
569;DHT22;269;48.884;9.192;2023-06-14T12:33:03;31.40;43.90
569;DHT22;269;48.884;9.192;2023-06-14T12:35:30;31.70;44.70
569;DHT22;269;48.884;9.192;2023-06-14T12:37:58;32.20;43.80
569;DHT22;269;48.884;9.192;2023-06-14T12:40:26;32.70;43.00
569;DHT22;269;48.884;9.192;2023-06-14T12:42:53;33.20;42.20
569;DHT22;269;48.884;9.192;2023-06-14T12:45:20;33.60;42.30
569;DHT22;269;48.884;9.192;2023-06-14T12:47:50;33.90;41.40
569;DHT22;269;48.884;9.192;2023-06-14T12:50:18;34.30;41.50
569;DHT22;269;48.884;9.192;2023-06-14T12:52:46;34.60;40.90
569;DHT22;269;48.884;9.192;2023-06-14T12:55:14;35.00;40.70
569;DHT22;269;48.884;9.192;2023-06-14T12:57:41;35.30;40.40
569;DHT22;269;48.884;9.192;2023-06-14T13:00:10;35.50;39.80
569;DHT22;269;48.884;9.192;2023-06-14T13:02:39;35.80;39.70
569;DHT22;269;48.884;9.192;2023-06-14T13:05:08;36.20;39.90
569;DHT22;269;48.884;9.192;2023-06-14T13:07:37;36.70;39.00
569;DHT22;269;48.884;9.192;2023-06-14T13:10:05;36.80;38.80
569;DHT22;269;48.884;9.192;2023-06-14T13:12:32;37.10;38.40
569;DHT22;269;48.884;9.192;2023-06-14T13:15:00;37.20;37.80
569;DHT22;269;48.884;9.192;2023-06-14T13:17:28;37.40;38.10
569;DHT22;269;48.884;9.192;2023-06-14T13:19:55;37.90;37.70
569;DHT22;269;48.884;9.192;2023-06-14T13:22:25;38.30;37.10
569;DHT22;269;48.884;9.192;2023-06-14T13:24:53;38.70;36.50
569;DHT22;269;48.884;9.192;2023-06-14T13:27:20;39.30;35.90
569;DHT22;269;48.884;9.192;2023-06-14T13:29:48;39.40;35.40
569;DHT22;269;48.884;9.192;2023-06-14T13:32:21;39.70;34.80
569;DHT22;269;48.884;9.192;2023-06-14T13:34:49;39.60;34.80
569;DHT22;269;48.884;9.192;2023-06-14T13:37:17;39.80;34.60
569;DHT22;269;48.884;9.192;2023-06-14T13:39:46;40.30;34.90
569;DHT22;269;48.884;9.192;2023-06-14T13:42:14;40.50;35.20
569;DHT22;269;48.884;9.192;2023-06-14T13:44:41;40.50;34.90
569;DHT22;269;48.884;9.192;2023-06-14T13:47:09;40.80;34.80
569;DHT22;269;48.884;9.192;2023-06-14T13:49:36;41.00;34.50
569;DHT22;269;48.884;9.192;2023-06-14T13:52:04;41.30;34.40
569;DHT22;269;48.884;9.192;2023-06-14T13:54:32;41.60;34.10
569;DHT22;269;48.884;9.192;2023-06-14T13:57:01;41.80;33.40
569;DHT22;269;48.884;9.192;2023-06-14T13:59:28;42.00;33.30
569;DHT22;269;48.884;9.192;2023-06-14T14:01:56;42.00;32.90
569;DHT22;269;48.884;9.192;2023-06-14T14:04:23;41.90;32.90
569;DHT22;269;48.884;9.192;2023-06-14T14:06:51;41.60;32.70
569;DHT22;269;48.884;9.192;2023-06-14T14:09:19;41.40;33.00
569;DHT22;269;48.884;9.192;2023-06-14T14:11:46;41.10;33.30
569;DHT22;269;48.884;9.192;2023-06-14T14:14:16;41.00;33.00
569;DHT22;269;48.884;9.192;2023-06-14T14:16:44;40.70;33.20
569;DHT22;269;48.884;9.192;2023-06-14T14:19:13;40.70;33.50
569;DHT22;269;48.884;9.192;2023-06-14T14:21:41;41.00;33.50
569;DHT22;269;48.884;9.192;2023-06-14T14:24:08;41.30;33.30
569;DHT22;269;48.884;9.192;2023-06-14T14:26:36;41.30;33.00
569;DHT22;269;48.884;9.192;2023-06-14T14:29:03;41.80;32.90
569;DHT22;269;48.884;9.192;2023-06-14T14:31:32;41.70;32.70
569;DHT22;269;48.884;9.192;2023-06-14T14:34:00;41.00;32.80
569;DHT22;269;48.884;9.192;2023-06-14T14:36:28;40.30;33.20
569;DHT22;269;48.884;9.192;2023-06-14T14:38:56;39.40;33.40
569;DHT22;269;48.884;9.192;2023-06-14T14:41:23;39.20;34.20
569;DHT22;269;48.884;9.192;2023-06-14T14:43:53;39.00;34.00
569;DHT22;269;48.884;9.192;2023-06-14T14:46:20;38.40;34.10
569;DHT22;269;48.884;9.192;2023-06-14T14:48:50;37.90;34.80
569;DHT22;269;48.884;9.192;2023-06-14T14:51:17;37.80;35.20
569;DHT22;269;48.884;9.192;2023-06-14T14:53:45;38.00;34.50
569;DHT22;269;48.884;9.192;2023-06-14T14:56:12;38.30;34.80
569;DHT22;269;48.884;9.192;2023-06-14T14:58:40;38.80;34.40
569;DHT22;269;48.884;9.192;2023-06-14T15:01:07;39.40;34.20
569;DHT22;269;48.884;9.192;2023-06-14T15:03:35;39.60;33.70
569;DHT22;269;48.884;9.192;2023-06-14T15:06:04;40.10;33.30
569;DHT22;269;48.884;9.192;2023-06-14T15:08:32;40.50;33.40
569;DHT22;269;48.884;9.192;2023-06-14T15:10:59;40.60;33.00
569;DHT22;269;48.884;9.192;2023-06-14T15:13:28;39.90;33.10
569;DHT22;269;48.884;9.192;2023-06-14T15:15:56;39.00;33.20
569;DHT22;269;48.884;9.192;2023-06-14T15:18:23;37.90;34.20
569;DHT22;269;48.884;9.192;2023-06-14T15:20:51;36.70;34.80
569;DHT22;269;48.884;9.192;2023-06-14T15:23:20;35.70;35.90
569;DHT22;269;48.884;9.192;2023-06-14T15:25:48;35.10;36.30
569;DHT22;269;48.884;9.192;2023-06-14T15:28:18;35.20;36.60
569;DHT22;269;48.884;9.192;2023-06-14T15:30:45;35.40;36.40
569;DHT22;269;48.884;9.192;2023-06-14T15:33:13;35.70;36.30
569;DHT22;269;48.884;9.192;2023-06-14T15:35:41;36.20;36.10
569;DHT22;269;48.884;9.192;2023-06-14T15:38:08;36.70;36.00
569;DHT22;269;48.884;9.192;2023-06-14T15:40:37;36.90;35.70
569;DHT22;269;48.884;9.192;2023-06-14T15:43:05;36.70;35.60
569;DHT22;269;48.884;9.192;2023-06-14T15:45:32;36.30;35.60
569;DHT22;269;48.884;9.192;2023-06-14T15:48:00;35.70;35.90
569;DHT22;269;48.884;9.192;2023-06-14T15:50:28;35.10;36.70
569;DHT22;269;48.884;9.192;2023-06-14T15:52:56;34.50;37.10
569;DHT22;269;48.884;9.192;2023-06-14T15:55:25;33.90;37.30
569;DHT22;269;48.884;9.192;2023-06-14T15:57:53;33.40;37.70
569;DHT22;269;48.884;9.192;2023-06-14T16:00:21;32.90;38.20
569;DHT22;269;48.884;9.192;2023-06-14T16:02:48;32.40;38.60
569;DHT22;269;48.884;9.192;2023-06-14T16:05:16;32.30;39.20
569;DHT22;269;48.884;9.192;2023-06-14T16:07:43;31.50;39.20
569;DHT22;269;48.884;9.192;2023-06-14T16:10:10;31.10;40.10
569;DHT22;269;48.884;9.192;2023-06-14T16:12:37;30.70;40.40
569;DHT22;269;48.884;9.192;2023-06-14T16:15:07;30.40;41.00
569;DHT22;269;48.884;9.192;2023-06-14T16:17:34;30.00;41.80
569;DHT22;269;48.884;9.192;2023-06-14T16:20:02;29.70;42.00
569;DHT22;269;48.884;9.192;2023-06-14T16:22:29;29.50;42.50
569;DHT22;269;48.884;9.192;2023-06-14T16:24:56;29.20;42.90
569;DHT22;269;48.884;9.192;2023-06-14T16:27:23;29.10;43.60
569;DHT22;269;48.884;9.192;2023-06-14T16:29:50;28.90;43.80
569;DHT22;269;48.884;9.192;2023-06-14T16:32:19;28.60;44.40
569;DHT22;269;48.884;9.192;2023-06-14T16:34:46;28.30;44.80
569;DHT22;269;48.884;9.192;2023-06-14T16:37:13;28.10;45.30
569;DHT22;269;48.884;9.192;2023-06-14T16:39:40;28.00;45.50
569;DHT22;269;48.884;9.192;2023-06-14T16:42:07;27.90;46.00
569;DHT22;269;48.884;9.192;2023-06-14T16:44:34;27.70;46.20
569;DHT22;269;48.884;9.192;2023-06-14T16:47:01;27.70;46.60
569;DHT22;269;48.884;9.192;2023-06-14T16:49:31;27.60;46.80
569;DHT22;269;48.884;9.192;2023-06-14T16:51:58;27.50;47.00
569;DHT22;269;48.884;9.192;2023-06-14T16:54:25;27.40;47.00
569;DHT22;269;48.884;9.192;2023-06-14T16:56:52;27.30;47.20
569;DHT22;269;48.884;9.192;2023-06-14T16:59:19;27.20;47.60
569;DHT22;269;48.884;9.192;2023-06-14T17:01:50;27.10;47.30
569;DHT22;269;48.884;9.192;2023-06-14T17:04:18;27.10;47.50
569;DHT22;269;48.884;9.192;2023-06-14T17:06:46;27.10;47.60
569;DHT22;269;48.884;9.192;2023-06-14T17:09:13;27.00;47.80
569;DHT22;269;48.884;9.192;2023-06-14T17:11:40;27.00;48.00
569;DHT22;269;48.884;9.192;2023-06-14T17:14:07;26.90;48.30
569;DHT22;269;48.884;9.192;2023-06-14T17:16:35;26.80;48.50
569;DHT22;269;48.884;9.192;2023-06-14T17:19:02;26.80;49.00
569;DHT22;269;48.884;9.192;2023-06-14T17:21:30;26.60;49.00
569;DHT22;269;48.884;9.192;2023-06-14T17:23:59;26.60;49.20
569;DHT22;269;48.884;9.192;2023-06-14T17:26:26;26.50;49.30
569;DHT22;269;48.884;9.192;2023-06-14T17:28:54;26.40;49.30
569;DHT22;269;48.884;9.192;2023-06-14T17:31:21;26.40;49.60
569;DHT22;269;48.884;9.192;2023-06-14T17:33:48;26.30;49.40
569;DHT22;269;48.884;9.192;2023-06-14T17:36:15;26.20;49.60
569;DHT22;269;48.884;9.192;2023-06-14T17:38:42;26.20;49.00
569;DHT22;269;48.884;9.192;2023-06-14T17:41:10;26.20;48.80
569;DHT22;269;48.884;9.192;2023-06-14T17:43:39;26.10;48.80
569;DHT22;269;48.884;9.192;2023-06-14T17:46:06;26.00;48.60
569;DHT22;269;48.884;9.192;2023-06-14T17:48:33;25.80;48.60
569;DHT22;269;48.884;9.192;2023-06-14T17:51:00;25.70;49.90
569;DHT22;269;48.884;9.192;2023-06-14T17:53:27;25.60;49.90
569;DHT22;269;48.884;9.192;2023-06-14T17:55:55;25.50;49.80
569;DHT22;269;48.884;9.192;2023-06-14T17:58:23;25.40;51.00
569;DHT22;269;48.884;9.192;2023-06-14T18:00:51;25.30;50.20
569;DHT22;269;48.884;9.192;2023-06-14T18:03:18;25.10;50.40
569;DHT22;269;48.884;9.192;2023-06-14T18:05:45;25.10;51.10
569;DHT22;269;48.884;9.192;2023-06-14T18:08:12;24.90;50.90
569;DHT22;269;48.884;9.192;2023-06-14T18:10:40;24.80;51.20
569;DHT22;269;48.884;9.192;2023-06-14T18:13:07;24.80;51.70
569;DHT22;269;48.884;9.192;2023-06-14T18:15:35;24.70;51.70
569;DHT22;269;48.884;9.192;2023-06-14T18:18:03;24.70;51.50
569;DHT22;269;48.884;9.192;2023-06-14T18:20:32;24.60;51.70
569;DHT22;269;48.884;9.192;2023-06-14T18:22:59;24.60;52.10
569;DHT22;269;48.884;9.192;2023-06-14T18:25:26;24.50;51.80
569;DHT22;269;48.884;9.192;2023-06-14T18:27:53;24.50;52.70
569;DHT22;269;48.884;9.192;2023-06-14T18:30:20;24.50;52.30
569;DHT22;269;48.884;9.192;2023-06-14T18:32:49;24.50;52.20
569;DHT22;269;48.884;9.192;2023-06-14T18:35:16;24.40;52.30